Time;durP1;ratioP1;P1;durP2;ratioP2;P2;SDS_P1;SDS_P2;PMS_P1;PMS_P2;Temp;Humidity;BMP_temperature;BMP_pressure;BME280_temperature;BME280_humidity;BME280_pressure;Samples;Min_cycle;Max_cycle;Signal;HPM_P1;HPM_P2
2024/01/16 00:02:02;;;;;;;0.20;0.20;;;-0.20;99.90;;;;;;5068853;28;20490;-75
2024/01/16 00:04:30;;;;;;;0.10;0.10;;;-0.30;99.90;;;;;;5077411;28;20110;-75
2024/01/16 00:06:58;;;;;;;0.10;0.10;;;-0.30;99.90;;;;;;5072696;28;20045;-75
2024/01/16 00:09:25;;;;;;;0.20;0.20;;;-0.30;99.90;;;;;;5094318;27;20053;-76
2024/01/16 00:11:52;;;;;;;0.20;0.20;;;-0.30;99.90;;;;;;5087716;28;20046;-75
2024/01/16 00:14:19;;;;;;;0.20;0.20;;;-0.30;99.90;;;;;;5085122;28;20140;-75
2024/01/16 00:16:47;;;;;;;0.20;0.20;;;-0.20;99.90;;;;;;5063532;28;20044;-76
2024/01/16 00:19:15;;;;;;;0.13;0.13;;;-0.20;99.90;;;;;;5088124;28;20060;-75
2024/01/16 00:21:47;;;;;;;0.20;0.20;;;-0.30;99.90;;;;;;5082612;28;20423;-75
2024/01/16 00:24:15;;;;;;;0.20;0.20;;;-0.20;99.90;;;;;;5076310;28;20053;-76
2024/01/16 00:26:42;;;;;;;0.20;0.20;;;-0.20;99.90;;;;;;5087095;28;20432;-74
2024/01/16 00:29:11;;;;;;;0.20;0.20;;;-0.30;99.90;;;;;;5078967;27;20564;-74
2024/01/16 00:31:39;;;;;;;0.20;0.20;;;-0.30;99.90;;;;;;5085944;28;20048;-74
2024/01/16 00:34:07;;;;;;;0.10;0.10;;;-0.30;99.90;;;;;;5096219;28;20551;-75
2024/01/16 00:36:34;;;;;;;0.10;0.10;;;-0.40;99.90;;;;;;5086882;28;20052;-76
2024/01/16 00:39:03;;;;;;;0.10;0.10;;;-0.40;99.90;;;;;;5067834;28;20055;-76
2024/01/16 00:41:30;;;;;;;0.10;0.10;;;-0.30;99.90;;;;;;5087484;28;20074;-76
2024/01/16 00:43:57;;;;;;;0.20;0.20;;;-0.30;99.90;;;;;;5071187;28;20044;-76
2024/01/16 00:46:24;;;;;;;0.10;0.10;;;-0.30;99.90;;;;;;5079797;28;20045;-76
2024/01/16 00:48:51;;;;;;;0.10;0.10;;;-0.40;99.90;;;;;;5076696;28;20127;-75
2024/01/16 00:51:19;;;;;;;0.10;0.10;;;-0.50;99.90;;;;;;5109226;27;20057;-75
2024/01/16 00:53:46;;;;;;;0.10;0.10;;;-0.50;99.90;;;;;;5057530;28;20122;-75
2024/01/16 00:56:13;;;;;;;0.10;0.10;;;-0.60;99.90;;;;;;5075732;28;20132;-74
2024/01/16 00:58:41;;;;;;;0.10;0.10;;;-0.60;99.90;;;;;;5054212;28;20052;-74
2024/01/16 01:01:08;;;;;;;0.10;0.10;;;-0.60;99.90;;;;;;5092827;27;20044;-74
2024/01/16 01:03:35;;;;;;;0.20;0.20;;;-0.60;99.90;;;;;;5099165;27;20044;-74
2024/01/16 01:06:02;;;;;;;0.10;0.10;;;-0.70;99.90;;;;;;5084280;28;20053;-75
2024/01/16 01:08:30;;;;;;;0.17;0.17;;;-0.70;99.90;;;;;;5093397;28;20078;-76
2024/01/16 01:10:57;;;;;;;0.20;0.20;;;-0.70;99.90;;;;;;5076177;28;20196;-76
2024/01/16 01:13:25;;;;;;;0.13;0.13;;;-0.70;99.90;;;;;;5093217;27;20040;-76
2024/01/16 01:15:52;;;;;;;0.10;0.10;;;-0.70;99.90;;;;;;5076931;28;20131;-76
2024/01/16 01:18:19;;;;;;;0.10;0.10;;;-0.70;99.90;;;;;;5076864;28;20054;-75
2024/01/16 01:20:47;;;;;;;0.20;0.20;;;-0.70;99.90;;;;;;5075244;28;20051;-75
2024/01/16 01:23:14;;;;;;;0.20;0.20;;;-0.70;99.90;;;;;;5092704;27;20051;-76
2024/01/16 01:25:42;;;;;;;0.20;0.20;;;-0.70;99.90;;;;;;5069987;28;20060;-75
2024/01/16 01:28:11;;;;;;;0.10;0.10;;;-0.70;99.90;;;;;;5077946;28;20045;-76
2024/01/16 01:30:38;;;;;;;0.10;0.10;;;-0.60;99.90;;;;;;5058586;28;22033;-76
2024/01/16 01:33:06;;;;;;;0.10;0.10;;;-0.60;99.90;;;;;;5040878;28;20040;-76
2024/01/16 01:35:33;;;;;;;0.10;0.10;;;-0.50;99.90;;;;;;5070973;28;20059;-77
2024/01/16 01:38:00;;;;;;;0.10;0.10;;;-0.40;99.90;;;;;;5092313;27;20070;-76
2024/01/16 01:40:28;;;;;;;0.13;0.13;;;-0.20;99.90;;;;;;5059490;28;20145;-76
2024/01/16 01:42:55;;;;;;;0.10;0.10;;;-0.20;99.90;;;;;;5075299;28;20731;-76
2024/01/16 01:45:22;;;;;;;0.10;0.10;;;-0.10;99.90;;;;;;5109214;27;20153;-76
2024/01/16 01:47:50;;;;;;;0.10;0.10;;;0.00;99.90;;;;;;5075108;28;20504;-75
2024/01/16 01:50:18;;;;;;;0.10;0.10;;;0.00;99.90;;;;;;5090445;28;20154;-75
2024/01/16 01:52:45;;;;;;;0.10;0.10;;;-0.10;99.90;;;;;;5092941;27;20052;-75
2024/01/16 01:55:13;;;;;;;0.20;0.20;;;-0.20;99.90;;;;;;5040839;28;20052;-75
2024/01/16 01:57:42;;;;;;;0.20;0.20;;;-0.20;99.90;;;;;;5092638;28;20065;-76
2024/01/16 02:00:11;;;;;;;0.10;0.10;;;-0.30;99.90;;;;;;5060112;28;20044;-76
2024/01/16 02:02:42;;;;;;;0.17;0.17;;;-0.30;99.90;;;;;;5073593;28;20056;-76
2024/01/16 02:05:10;;;;;;;0.13;0.13;;;-0.40;99.90;;;;;;5058831;28;20045;-76
2024/01/16 02:07:38;;;;;;;0.10;0.10;;;-0.50;99.90;;;;;;5089821;27;20080;-77
2024/01/16 02:10:06;;;;;;;0.10;0.10;;;-0.70;99.90;;;;;;5069117;28;20056;-76
2024/01/16 02:12:33;;;;;;;0.10;0.10;;;-0.80;99.90;;;;;;5089929;27;20044;-78
2024/01/16 02:15:00;;;;;;;0.10;0.10;;;-0.80;99.90;;;;;;5075735;28;20591;-76
2024/01/16 02:17:28;;;;;;;0.20;0.20;;;-0.80;99.90;;;;;;5056971;28;20044;-77
2024/01/16 02:19:55;;;;;;;0.20;0.20;;;-0.90;99.90;;;;;;5056390;28;20037;-76
2024/01/16 02:22:27;;;;;;;0.10;0.10;;;-1.00;99.90;;;;;;5038637;28;20076;-76
2024/01/16 02:24:56;;;;;;;0.10;0.10;;;-1.00;99.90;;;;;;5075980;28;20040;-76
2024/01/16 02:27:23;;;;;;;0.10;0.10;;;-0.90;99.90;;;;;;5108107;27;20048;-76
2024/01/16 02:29:50;;;;;;;0.10;0.10;;;-0.90;99.90;;;;;;5056721;28;20041;-76
2024/01/16 02:32:17;;;;;;;0.10;0.10;;;-0.90;99.90;;;;;;5087460;27;20049;-76
2024/01/16 02:34:44;;;;;;;0.10;0.10;;;-0.90;99.90;;;;;;5055259;28;20052;-76
2024/01/16 02:37:12;;;;;;;0.13;0.13;;;-0.80;99.90;;;;;;5070438;28;20056;-76
2024/01/16 02:39:39;;;;;;;0.20;0.20;;;-0.70;99.90;;;;;;5077626;28;20040;-77
2024/01/16 02:42:07;;;;;;;0.10;0.10;;;-0.60;99.90;;;;;;5074367;28;20049;-76
2024/01/16 02:44:34;;;;;;;0.20;0.20;;;-0.40;99.90;;;;;;5075578;27;20052;-76
2024/01/16 02:47:01;;;;;;;0.10;0.10;;;-0.30;99.90;;;;;;5075097;28;20049;-76
2024/01/16 02:49:31;;;;;;;0.10;0.10;;;-0.30;99.90;;;;;;5076301;28;20044;-76
2024/01/16 02:51:58;;;;;;;0.10;0.10;;;-0.30;99.90;;;;;;5059462;28;20539;-76
2024/01/16 02:54:26;;;;;;;0.10;0.10;;;-0.40;99.90;;;;;;5080488;28;20075;-76
2024/01/16 02:56:53;;;;;;;0.10;0.10;;;-0.40;99.90;;;;;;5076492;28;20052;-76
2024/01/16 02:59:20;;;;;;;0.10;0.10;;;-0.30;99.90;;;;;;5073628;28;20111;-75
2024/01/16 03:01:47;;;;;;;0.10;0.10;;;-0.40;99.90;;;;;;5076694;28;20557;-76
2024/01/16 03:04:14;;;;;;;0.17;0.17;;;-0.40;99.90;;;;;;5074051;28;20967;-76
2024/01/16 03:06:41;;;;;;;0.20;0.20;;;-0.40;99.90;;;;;;5075052;28;20056;-76
2024/01/16 03:09:09;;;;;;;0.10;0.10;;;-0.30;99.90;;;;;;5057634;28;20142;-76
2024/01/16 03:11:36;;;;;;;0.10;0.10;;;-0.30;99.90;;;;;;5109729;27;20056;-75
2024/01/16 03:14:04;;;;;;;0.13;0.13;;;-0.30;99.90;;;;;;5073209;28;20067;-75
2024/01/16 03:16:32;;;;;;;0.10;0.10;;;-0.30;99.90;;;;;;5078264;28;20056;-75
2024/01/16 03:18:59;;;;;;;0.10;0.10;;;-0.40;99.90;;;;;;5094050;27;20048;-76
2024/01/16 03:21:27;;;;;;;0.13;0.13;;;-0.50;99.90;;;;;;5098512;27;20508;-76
2024/01/16 03:23:54;;;;;;;0.10;0.10;;;-0.60;99.90;;;;;;5095378;27;20045;-76
2024/01/16 03:26:22;;;;;;;0.10;0.10;;;-0.60;99.90;;;;;;5111602;27;20049;-76
2024/01/16 03:28:49;;;;;;;0.10;0.10;;;-0.70;99.90;;;;;;5074552;28;20043;-76
2024/01/16 03:31:17;;;;;;;0.10;0.10;;;-0.70;99.90;;;;;;5058248;28;20057;-76
2024/01/16 03:33:44;;;;;;;0.10;0.10;;;-0.70;99.90;;;;;;5078189;28;20044;-76
2024/01/16 03:36:12;;;;;;;0.10;0.10;;;-0.70;99.90;;;;;;5095193;28;20065;-75
2024/01/16 03:38:41;;;;;;;0.10;0.10;;;-0.70;99.90;;;;;;5095554;27;20045;-75
2024/01/16 03:41:11;;;;;;;0.10;0.10;;;-0.70;99.90;;;;;;5079112;28;20103;-76
2024/01/16 03:43:40;;;;;;;0.10;0.10;;;-0.70;99.90;;;;;;5111722;27;20079;-78
2024/01/16 03:46:07;;;;;;;0.10;0.10;;;-0.70;99.90;;;;;;5063808;28;21191;-76
2024/01/16 03:48:34;;;;;;;0.15;0.15;;;-0.80;99.90;;;;;;5111203;27;20045;-76
2024/01/16 03:51:02;;;;;;;0.10;0.10;;;-0.80;99.90;;;;;;5079405;28;20057;-76
2024/01/16 03:53:29;;;;;;;0.10;0.10;;;-0.80;99.90;;;;;;5075401;28;20044;-76
2024/01/16 03:55:56;;;;;;;0.10;0.10;;;-0.80;99.90;;;;;;5079668;28;20147;-75
2024/01/16 03:58:23;;;;;;;0.10;0.10;;;-0.90;99.90;;;;;;5078069;28;20091;-75
2024/01/16 04:00:51;;;;;;;0.10;0.10;;;-0.90;99.90;;;;;;5063328;28;20412;-76
2024/01/16 04:03:18;;;;;;;0.10;0.10;;;-1.00;99.90;;;;;;5095921;28;20048;-76
2024/01/16 04:05:45;;;;;;;0.10;0.10;;;-1.00;99.90;;;;;;5092679;28;20137;-75
2024/01/16 04:08:13;;;;;;;0.10;0.10;;;-1.00;99.90;;;;;;5110128;27;20072;-76
2024/01/16 04:10:40;;;;;;;0.20;0.20;;;-1.00;99.90;;;;;;5095004;27;20045;-76
2024/01/16 04:13:07;;;;;;;0.10;0.10;;;-0.90;99.90;;;;;;5075350;28;20052;-75
2024/01/16 04:15:38;;;;;;;0.13;0.13;;;-1.00;99.90;;;;;;5078511;28;20045;-75
2024/01/16 04:18:06;;;;;;;0.10;0.10;;;-0.90;99.90;;;;;;5072217;28;20185;-75
2024/01/16 04:20:34;;;;;;;0.10;0.10;;;-0.90;99.90;;;;;;5110079;27;20053;-75
2024/01/16 04:23:01;;;;;;;0.10;0.10;;;-0.90;99.90;;;;;;5102595;27;20543;-76
2024/01/16 04:25:28;;;;;;;0.10;0.10;;;-0.90;99.90;;;;;;5087411;28;20079;-76
2024/01/16 04:27:55;;;;;;;0.15;0.15;;;-0.90;99.90;;;;;;5105797;27;20048;-75
2024/01/16 04:30:23;;;;;;;0.10;0.10;;;-0.90;99.90;;;;;;5087948;28;20059;-75
2024/01/16 04:32:50;;;;;;;0.10;0.10;;;-0.90;99.90;;;;;;5066922;28;20556;-75
2024/01/16 04:35:17;;;;;;;0.10;0.10;;;-1.00;99.90;;;;;;5091092;28;20139;-75
2024/01/16 04:37:45;;;;;;;0.20;0.20;;;-0.90;99.90;;;;;;5088010;28;20078;-76
2024/01/16 04:40:12;;;;;;;0.10;0.10;;;-0.80;99.90;;;;;;5070684;28;20045;-76
2024/01/16 04:42:39;;;;;;;0.20;0.20;;;-0.70;99.90;;;;;;5076340;28;20465;-76
2024/01/16 04:45:07;;;;;;;0.10;0.10;;;-0.70;99.90;;;;;;5110166;27;20127;-76
2024/01/16 04:47:34;;;;;;;0.13;0.13;;;-0.70;99.90;;;;;;5110810;27;20107;-76
2024/01/16 04:50:01;;;;;;;0.20;0.20;;;-0.70;99.90;;;;;;5095018;28;20167;-76
2024/01/16 04:52:28;;;;;;;0.10;0.10;;;-0.60;99.90;;;;;;5111255;27;20080;-76
2024/01/16 04:54:55;;;;;;;0.20;0.20;;;-0.60;99.90;;;;;;5094443;27;20056;-76
2024/01/16 04:57:23;;;;;;;0.10;0.10;;;-0.50;99.90;;;;;;5059728;28;20591;-76
2024/01/16 04:59:50;;;;;;;0.10;0.10;;;-0.50;99.90;;;;;;5078800;28;20044;-76
2024/01/16 05:02:18;;;;;;;0.10;0.10;;;-0.50;99.90;;;;;;5074206;28;20585;-75
2024/01/16 05:04:49;;;;;;;0.10;0.10;;;-0.50;99.90;;;;;;5110288;27;20060;-76
2024/01/16 05:07:16;;;;;;;0.10;0.10;;;-0.50;99.90;;;;;;5092599;28;20530;-75
2024/01/16 05:09:45;;;;;;;0.10;0.10;;;-0.60;99.90;;;;;;5072663;28;20044;-74
2024/01/16 05:12:12;;;;;;;0.10;0.10;;;-0.60;99.90;;;;;;5074019;28;20102;-76
2024/01/16 05:14:39;;;;;;;0.10;0.10;;;-0.50;99.90;;;;;;5094107;27;20454;-75
2024/01/16 05:17:08;;;;;;;0.10;0.10;;;-0.50;99.90;;;;;;5091287;27;20067;-76
2024/01/16 05:19:35;;;;;;;0.20;0.20;;;-0.50;99.90;;;;;;5041975;28;20496;-75
2024/01/16 05:22:02;;;;;;;0.20;0.20;;;-0.50;99.90;;;;;;5109678;27;20051;-76
2024/01/16 05:24:30;;;;;;;0.15;0.15;;;-0.50;99.90;;;;;;5042862;28;20051;-75
2024/01/16 05:26:57;;;;;;;0.10;0.10;;;-0.60;99.90;;;;;;5074475;28;20052;-76
2024/01/16 05:29:24;;;;;;;0.10;0.10;;;-0.50;99.90;;;;;;5093911;28;20049;-76
2024/01/16 05:31:51;;;;;;;0.20;0.20;;;-0.50;99.90;;;;;;5075826;28;20052;-75
2024/01/16 05:34:18;;;;;;;0.10;0.10;;;-0.60;99.90;;;;;;5075708;28;20048;-76
2024/01/16 05:36:45;;;;;;;0.10;0.10;;;-0.50;99.90;;;;;;5075684;28;20056;-75
2024/01/16 05:39:12;;;;;;;0.20;0.20;;;-0.60;99.90;;;;;;5057361;28;20044;-75
2024/01/16 05:41:40;;;;;;;0.10;0.10;;;-0.60;99.90;;;;;;5076689;28;20187;-76
2024/01/16 05:44:07;;;;;;;0.10;0.10;;;-0.60;99.90;;;;;;5058361;28;20910;-76
2024/01/16 05:46:34;;;;;;;0.10;0.10;;;-0.60;99.90;;;;;;5061222;28;20516;-76
2024/01/16 05:49:03;;;;;;;0.20;0.20;;;-0.60;99.90;;;;;;5076100;28;20136;-76
2024/01/16 05:51:30;;;;;;;0.10;0.10;;;-0.60;99.90;;;;;;5083096;28;20056;-75
2024/01/16 05:53:57;;;;;;;0.10;0.10;;;-0.60;99.90;;;;;;5075130;28;20092;-75
2024/01/16 05:56:25;;;;;;;0.15;0.15;;;-0.50;99.90;;;;;;5109717;27;20044;-75
2024/01/16 05:58:52;;;;;;;0.10;0.10;;;-0.40;99.90;;;;;;5091294;28;20051;-74
2024/01/16 06:01:19;;;;;;;0.20;0.20;;;-0.40;99.90;;;;;;5090538;27;20041;-74
2024/01/16 06:03:48;;;;;;;0.17;0.17;;;-0.30;99.90;;;;;;5074567;28;20508;-74
2024/01/16 06:06:16;;;;;;;0.10;0.10;;;-0.30;99.90;;;;;;5072974;28;20610;-74
2024/01/16 06:08:43;;;;;;;0.10;0.10;;;-0.20;99.90;;;;;;5090750;27;20040;-74
2024/01/16 06:11:11;;;;;;;0.10;0.10;;;-0.30;99.90;;;;;;5053051;28;22044;-74
2024/01/16 06:13:40;;;;;;;0.10;0.10;;;-0.20;99.90;;;;;;5072701;28;20937;-74
2024/01/16 06:16:10;;;;;;;0.10;0.10;;;-0.20;99.90;;;;;;5074164;28;20056;-73
2024/01/16 06:18:37;;;;;;;0.10;0.10;;;-0.20;99.90;;;;;;5084777;28;20045;-74
2024/01/16 06:21:04;;;;;;;0.10;0.10;;;-0.10;99.90;;;;;;5102411;27;22232;-74
2024/01/16 06:23:32;;;;;;;0.10;0.10;;;-0.10;99.90;;;;;;5100107;27;20757;-74
2024/01/16 06:26:00;;;;;;;0.20;0.20;;;-0.10;99.90;;;;;;5088134;27;20045;-74
2024/01/16 06:28:27;;;;;;;0.20;0.20;;;0.00;99.90;;;;;;5096677;27;20048;-74
2024/01/16 06:30:54;;;;;;;0.10;0.10;;;0.00;99.90;;;;;;5085231;28;20562;-74
2024/01/16 06:33:22;;;;;;;0.20;0.20;;;0.00;99.90;;;;;;5074873;28;20964;-74
2024/01/16 06:35:49;;;;;;;0.20;0.20;;;0.00;99.90;;;;;;5091096;28;20051;-74
2024/01/16 06:38:19;;;;;;;0.10;0.10;;;0.10;99.90;;;;;;5071681;28;20045;-75
2024/01/16 06:40:46;;;;;;;0.10;0.10;;;0.00;99.90;;;;;;5057853;28;20156;-74
2024/01/16 06:43:15;;;;;;;0.20;0.20;;;0.00;99.90;;;;;;5087973;27;20057;-74
2024/01/16 06:45:44;;;;;;;0.10;0.10;;;0.00;99.90;;;;;;5074475;28;20124;-74
2024/01/16 06:48:11;;;;;;;0.10;0.10;;;0.00;99.90;;;;;;5109758;27;20049;-74
2024/01/16 06:50:38;;;;;;;0.10;0.10;;;0.10;99.90;;;;;;5059515;28;20041;-76
2024/01/16 06:53:05;;;;;;;0.20;0.20;;;0.10;99.90;;;;;;5085658;28;20053;-74
2024/01/16 06:55:33;;;;;;;0.20;0.20;;;0.00;99.90;;;;;;5069710;28;20052;-74
2024/01/16 06:58:00;;;;;;;0.15;0.15;;;0.00;99.90;;;;;;5055665;28;20057;-74
2024/01/16 07:00:27;;;;;;;0.10;0.10;;;0.00;99.90;;;;;;5123894;27;20040;-74
2024/01/16 07:02:54;;;;;;;0.20;0.20;;;0.00;99.90;;;;;;5076546;28;20534;-74
2024/01/16 07:05:22;;;;;;;0.20;0.20;;;0.00;99.90;;;;;;5078029;28;20044;-74
2024/01/16 07:07:49;;;;;;;0.10;0.10;;;0.00;99.90;;;;;;5087071;28;20125;-74
2024/01/16 07:10:22;;;;;;;0.20;0.20;;;0.00;99.90;;;;;;5078575;28;20050;-74
2024/01/16 07:12:51;;;;;;;0.10;0.10;;;0.00;99.90;;;;;;5115627;27;20049;-74
2024/01/16 07:15:18;;;;;;;0.10;0.10;;;0.00;99.90;;;;;;5080227;28;20048;-74
2024/01/16 07:17:45;;;;;;;0.10;0.10;;;0.00;99.90;;;;;;5102182;27;20064;-74
2024/01/16 07:20:13;;;;;;;0.10;0.10;;;0.00;99.90;;;;;;5083608;28;20051;-74
2024/01/16 07:22:40;;;;;;;0.10;0.10;;;0.00;99.90;;;;;;5085002;28;20059;-74
2024/01/16 07:25:08;;;;;;;0.10;0.10;;;0.00;99.90;;;;;;5078632;28;20045;-74
2024/01/16 07:27:35;;;;;;;0.10;0.10;;;0.00;99.90;;;;;;5078264;28;20045;-75
2024/01/16 07:30:06;;;;;;;0.10;0.10;;;0.00;99.90;;;;;;5092758;27;21021;-75
2024/01/16 07:32:33;;;;;;;0.10;0.10;;;0.00;99.90;;;;;;5060630;28;20614;-75
2024/01/16 07:35:02;;;;;;;0.20;0.20;;;0.00;99.90;;;;;;5069227;28;20053;-75
2024/01/16 07:37:30;;;;;;;0.10;0.10;;;0.00;99.90;;;;;;5071943;28;20049;-75
2024/01/16 07:39:57;;;;;;;0.10;0.10;;;0.00;99.90;;;;;;5044427;28;20052;-75
2024/01/16 07:42:24;;;;;;;0.10;0.10;;;0.00;99.90;;;;;;5044938;28;20053;-75
2024/01/16 07:44:52;;;;;;;0.10;0.10;;;0.00;99.90;;;;;;5071999;28;20055;-75
2024/01/16 07:47:20;;;;;;;0.20;0.20;;;0.00;99.90;;;;;;5080955;28;20510;-76
2024/01/16 07:49:47;;;;;;;0.10;0.10;;;0.00;99.90;;;;;;5050581;28;20136;-75
2024/01/16 07:52:15;;;;;;;0.10;0.10;;;0.00;99.90;;;;;;5092334;27;20048;-76
2024/01/16 07:54:42;;;;;;;0.10;0.10;;;0.00;99.90;;;;;;5062041;28;20151;-75
2024/01/16 07:57:10;;;;;;;0.10;0.10;;;0.10;99.90;;;;;;5065447;28;20047;-75
2024/01/16 07:59:37;;;;;;;0.10;0.10;;;0.00;99.90;;;;;;5077435;28;21149;-75
2024/01/16 08:02:05;;;;;;;0.20;0.20;;;0.10;99.90;;;;;;5055674;28;20055;-75
2024/01/16 08:04:32;;;;;;;0.13;0.13;;;0.10;99.90;;;;;;5085246;28;20041;-75
2024/01/16 08:06:59;;;;;;;0.20;0.20;;;0.10;99.90;;;;;;5079541;28;20049;-75
2024/01/16 08:09:27;;;;;;;0.15;0.15;;;0.10;99.90;;;;;;5083152;28;20041;-75
2024/01/16 08:11:54;;;;;;;0.20;0.20;;;0.10;99.90;;;;;;5093471;28;20084;-75
2024/01/16 08:14:21;;;;;;;0.13;0.13;;;0.10;99.90;;;;;;5072858;28;20368;-75
2024/01/16 08:16:49;;;;;;;0.10;0.10;;;0.10;99.90;;;;;;5075933;28;20055;-75
2024/01/16 08:19:16;;;;;;;0.20;0.20;;;0.20;99.90;;;;;;5076768;27;20052;-76
2024/01/16 08:21:43;;;;;;;0.20;0.20;;;0.20;99.90;;;;;;5073774;28;20055;-76
2024/01/16 08:24:11;;;;;;;0.10;0.10;;;0.30;99.90;;;;;;5076218;28;20049;-75
2024/01/16 08:26:38;;;;;;;0.17;0.17;;;0.30;99.90;;;;;;5077731;28;20044;-75
2024/01/16 08:29:05;;;;;;;0.20;0.20;;;0.30;99.90;;;;;;5055294;28;20053;-75
2024/01/16 08:31:32;;;;;;;0.20;0.20;;;0.40;99.90;;;;;;5084093;28;20117;-74
2024/01/16 08:33:59;;;;;;;0.20;0.20;;;0.40;99.90;;;;;;5061616;28;20063;-75
2024/01/16 08:36:27;;;;;;;0.20;0.20;;;0.50;99.90;;;;;;5116595;27;20044;-75
2024/01/16 08:38:55;;;;;;;0.20;0.20;;;0.60;99.90;;;;;;5080308;28;20040;-75
2024/01/16 08:41:22;;;;;;;0.20;0.20;;;0.60;99.90;;;;;;5096049;28;20045;-75
2024/01/16 08:43:50;;;;;;;0.20;0.20;;;0.60;99.90;;;;;;5109927;27;20160;-75
2024/01/16 08:46:19;;;;;;;0.10;0.10;;;0.60;99.90;;;;;;5086531;28;20595;-75
2024/01/16 08:48:47;;;;;;;0.20;0.20;;;0.60;99.90;;;;;;5083640;28;20050;-74
2024/01/16 08:51:14;;;;;;;0.20;0.20;;;0.60;99.90;;;;;;5070626;28;20144;-75
2024/01/16 08:53:42;;;;;;;0.20;0.20;;;0.60;99.90;;;;;;5082164;28;20048;-74
2024/01/16 08:56:09;;;;;;;0.20;0.20;;;0.70;99.90;;;;;;5075457;28;20688;-75
2024/01/16 08:58:37;;;;;;;0.20;0.20;;;0.90;99.90;;;;;;5110947;27;20068;-75
2024/01/16 09:01:05;;;;;;;0.30;0.30;;;0.90;99.90;;;;;;5108343;27;20473;-75
2024/01/16 09:03:34;;;;;;;0.28;0.28;;;1.40;99.90;;;;;;5078319;28;20040;-75
2024/01/16 09:06:01;;;;;;;0.28;0.28;;;1.60;99.90;;;;;;5041416;28;20048;-75
2024/01/16 09:08:29;;;;;;;0.20;0.20;;;1.90;99.90;;;;;;5070836;28;20052;-75
2024/01/16 09:10:57;;;;;;;0.30;0.30;;;1.70;99.90;;;;;;5056933;28;20492;-74
2024/01/16 09:13:24;;;;;;;0.10;0.10;;;1.50;99.90;;;;;;5055825;28;20053;-74
2024/01/16 09:15:51;;;;;;;0.10;0.10;;;1.40;99.90;;;;;;5097407;27;20055;-75
2024/01/16 09:18:18;;;;;;;0.10;0.10;;;1.10;99.90;;;;;;5071539;28;20045;-75
2024/01/16 09:20:46;;;;;;;0.10;0.10;;;0.90;99.90;;;;;;5077061;28;20067;-75
2024/01/16 09:23:14;;;;;;;0.17;0.17;;;0.80;99.90;;;;;;5072177;28;20051;-75
2024/01/16 09:25:41;;;;;;;0.10;0.10;;;0.70;99.90;;;;;;5075622;28;20092;-75
2024/01/16 09:28:10;;;;;;;0.10;0.10;;;0.70;99.90;;;;;;5074585;28;20114;-75
2024/01/16 09:30:37;;;;;;;0.20;0.20;;;0.70;99.90;;;;;;5085971;28;20513;-75
2024/01/16 09:33:06;;;;;;;0.20;0.20;;;0.80;99.90;;;;;;5062225;28;20053;-75
2024/01/16 09:35:34;;;;;;;0.20;0.20;;;0.90;99.90;;;;;;5084369;28;20506;-75
2024/01/16 09:38:02;;;;;;;0.10;0.10;;;1.10;99.90;;;;;;5077725;28;20119;-75
2024/01/16 09:40:29;;;;;;;0.17;0.17;;;1.10;99.90;;;;;;5111147;27;20136;-75
2024/01/16 09:42:56;;;;;;;0.10;0.10;;;1.20;99.90;;;;;;5071155;28;20052;-75
2024/01/16 09:45:24;;;;;;;0.20;0.20;;;1.10;99.90;;;;;;5079751;28;20436;-76
2024/01/16 09:47:52;;;;;;;0.20;0.20;;;1.10;99.90;;;;;;5076793;28;20041;-75
2024/01/16 09:50:20;;;;;;;0.20;0.20;;;1.20;99.90;;;;;;5092729;28;20124;-76
2024/01/16 09:52:48;;;;;;;0.20;0.20;;;1.20;99.90;;;;;;5082032;28;20234;-75
2024/01/16 09:55:16;;;;;;;0.20;0.20;;;1.20;99.90;;;;;;5112862;27;20429;-75
2024/01/16 09:57:45;;;;;;;0.10;0.10;;;1.20;99.90;;;;;;5077157;28;20044;-76
2024/01/16 10:00:13;;;;;;;0.10;0.10;;;1.30;99.90;;;;;;5088393;28;20045;-76
2024/01/16 10:02:42;;;;;;;0.20;0.20;;;1.30;99.90;;;;;;5091103;27;20044;-75
2024/01/16 10:05:13;;;;;;;0.20;0.20;;;1.30;99.90;;;;;;5079971;28;20506;-75
2024/01/16 10:07:44;;;;;;;0.20;0.20;;;1.30;99.90;;;;;;5076147;28;20102;-75
2024/01/16 10:10:11;;;;;;;0.20;0.20;;;1.30;99.90;;;;;;5123666;27;20049;-76
2024/01/16 10:12:39;;;;;;;0.20;0.20;;;1.30;99.90;;;;;;5069612;28;20537;-75
2024/01/16 10:15:07;;;;;;;0.10;0.10;;;1.30;99.90;;;;;;5052510;28;20517;-75
2024/01/16 10:17:39;;;;;;;0.20;0.20;;;1.30;99.90;;;;;;5084887;28;20056;-75
2024/01/16 10:20:08;;;;;;;0.10;0.10;;;1.30;99.90;;;;;;5085463;28;20124;-75
2024/01/16 10:22:35;;;;;;;0.10;0.10;;;1.40;99.90;;;;;;5065405;28;20080;-75
2024/01/16 10:25:12;;;;;;;0.10;0.10;;;1.40;99.90;;;;;;5062725;28;20045;-75
2024/01/16 10:27:40;;;;;;;0.10;0.10;;;1.40;99.90;;;;;;5053732;28;20053;-75
2024/01/16 10:30:08;;;;;;;0.20;0.20;;;1.40;99.90;;;;;;5083650;28;20605;-75
2024/01/16 10:32:37;;;;;;;0.20;0.20;;;1.40;99.90;;;;;;5070671;28;20052;-76
2024/01/16 10:35:10;;;;;;;0.20;0.20;;;1.50;99.90;;;;;;5072048;28;20496;-75
2024/01/16 10:37:56;;;;;;;0.20;0.20;;;1.50;99.90;;;;;;5094145;27;20919;-75
2024/01/16 10:40:29;;;;;;;0.10;0.10;;;1.50;99.90;;;;;;5073579;28;20532;-75
2024/01/16 10:43:00;;;;;;;0.10;0.10;;;1.60;99.90;;;;;;5076577;28;20049;-75
2024/01/16 10:45:27;;;;;;;0.20;0.20;;;1.70;99.90;;;;;;5093384;28;20045;-75
2024/01/16 10:48:08;;;;;;;0.20;0.20;;;1.60;99.90;;;;;;5071871;28;20226;-75
2024/01/16 10:50:38;;;;;;;0.10;0.10;;;1.60;99.90;;;;;;5078318;28;20516;-75
2024/01/16 10:53:07;;;;;;;0.10;0.10;;;1.60;99.90;;;;;;5093795;27;20191;-75
2024/01/16 10:55:51;;;;;;;0.10;0.10;;;1.60;99.90;;;;;;5086317;28;20578;-75
2024/01/16 10:58:23;;;;;;;0.20;0.20;;;1.70;99.90;;;;;;5075194;28;20061;-74
2024/01/16 11:00:53;;;;;;;0.20;0.20;;;1.70;99.90;;;;;;5095416;27;20059;-74
2024/01/16 11:03:30;;;;;;;0.13;0.13;;;1.80;99.90;;;;;;5078852;28;20142;-74
2024/01/16 11:05:59;;;;;;;0.10;0.10;;;1.80;99.90;;;;;;5080105;28;20064;-74
2024/01/16 11:08:30;;;;;;;0.20;0.20;;;1.80;99.90;;;;;;5111015;27;20072;-74
2024/01/16 11:11:00;;;;;;;0.20;0.20;;;1.90;99.90;;;;;;5078321;28;20076;-74
2024/01/16 11:13:28;;;;;;;0.10;0.10;;;1.80;99.90;;;;;;5077567;28;20043;-74
2024/01/16 11:15:57;;;;;;;0.10;0.10;;;1.80;99.90;;;;;;5095662;27;20080;-74
2024/01/16 11:18:27;;;;;;;0.20;0.20;;;1.80;99.90;;;;;;5094810;27;20048;-74
2024/01/16 11:20:55;;;;;;;0.10;0.10;;;1.90;99.90;;;;;;5095423;27;20138;-74
2024/01/16 11:23:30;;;;;;;0.20;0.20;;;1.90;99.90;;;;;;5078243;28;20052;-74
2024/01/16 11:25:57;;;;;;;0.10;0.10;;;1.90;99.90;;;;;;5095467;27;20049;-74
2024/01/16 11:28:31;;;;;;;0.20;0.20;;;1.80;99.90;;;;;;5079375;28;20041;-74
2024/01/16 11:31:13;;;;;;;0.10;0.10;;;1.80;99.90;;;;;;5080742;28;20044;-74
2024/01/16 11:33:41;;;;;;;0.10;0.10;;;1.90;99.90;;;;;;5086009;28;20056;-74
2024/01/16 11:36:48;;;;;;;0.10;0.10;;;2.10;99.90;;;;;;5076363;28;20053;-74
2024/01/16 11:39:20;;;;;;;0.10;0.10;;;2.30;99.90;;;;;;5078965;28;20049;-74
2024/01/16 11:41:56;;;;;;;0.10;0.10;;;2.10;99.90;;;;;;5087732;28;20059;-74
2024/01/16 11:44:42;;;;;;;0.10;0.10;;;1.90;99.90;;;;;;5095549;28;20056;-74
2024/01/16 11:47:18;;;;;;;0.10;0.10;;;1.80;99.90;;;;;;5064011;28;20052;-74
2024/01/16 11:49:50;;;;;;;0.10;0.10;;;1.70;99.90;;;;;;5078688;28;20041;-75
2024/01/16 11:52:43;;;;;;;0.10;0.10;;;1.70;99.90;;;;;;5085883;28;20048;-74
2024/01/16 11:55:33;;;;;;;0.10;0.10;;;1.70;99.90;;;;;;5081347;28;20509;-75
2024/01/16 11:58:41;;;;;;;0.20;0.20;;;1.80;99.90;;;;;;5068490;28;20048;-75
2024/01/16 12:01:11;;;;;;;0.20;0.20;;;1.70;99.90;;;;;;5066695;28;20055;-76
2024/01/16 12:03:39;;;;;;;0.20;0.20;;;1.60;99.90;;;;;;5069045;28;20084;-76
2024/01/16 12:06:08;;;;;;;0.20;0.20;;;1.60;99.90;;;;;;5069420;28;20052;-77
2024/01/16 12:08:39;;;;;;;0.10;0.10;;;1.60;99.90;;;;;;5072188;28;20033;-77
2024/01/16 12:11:07;;;;;;;0.10;0.10;;;1.60;99.90;;;;;;5089124;28;20049;-77
2024/01/16 12:13:34;;;;;;;0.10;0.10;;;1.60;99.90;;;;;;5069757;28;20052;-77
2024/01/16 12:16:05;;;;;;;0.20;0.20;;;1.60;99.90;;;;;;5106460;28;20044;-76
2024/01/16 12:18:33;;;;;;;0.10;0.10;;;1.70;99.90;;;;;;5109376;27;20049;-76
2024/01/16 12:21:09;;;;;;;0.10;0.10;;;1.70;99.90;;;;;;5079280;28;20099;-77
2024/01/16 12:23:36;;;;;;;0.20;0.20;;;1.80;99.90;;;;;;5101641;27;20507;-77
2024/01/16 12:26:06;;;;;;;0.10;0.10;;;1.90;99.90;;;;;;5088595;28;20124;-77
2024/01/16 12:28:33;;;;;;;0.13;0.13;;;1.90;99.90;;;;;;5081762;28;20535;-77
2024/01/16 12:31:02;;;;;;;0.20;0.20;;;2.00;99.90;;;;;;5057212;28;20048;-77
2024/01/16 12:33:30;;;;;;;0.20;0.20;;;2.30;99.90;;;;;;5067611;28;20053;-77
2024/01/16 12:36:03;;;;;;;0.10;0.10;;;2.50;99.90;;;;;;5079175;28;20051;-78
2024/01/16 12:38:30;;;;;;;0.20;0.20;;;2.80;99.90;;;;;;5081990;28;20493;-77
2024/01/16 12:40:59;;;;;;;0.20;0.20;;;3.20;99.90;;;;;;5074474;28;20119;-77
2024/01/16 12:43:26;;;;;;;0.10;0.10;;;3.40;99.90;;;;;;5120489;27;20064;-77
2024/01/16 12:45:57;;;;;;;0.20;0.20;;;3.60;99.90;;;;;;5084690;28;20057;-76
2024/01/16 12:48:27;;;;;;;0.20;0.20;;;3.60;99.90;;;;;;5070058;28;20502;-77
2024/01/16 12:51:02;;;;;;;0.20;0.20;;;3.80;99.90;;;;;;5083448;28;20064;-77
2024/01/16 12:53:36;;;;;;;0.10;0.10;;;3.80;99.90;;;;;;5103494;28;20064;-77
2024/01/16 12:56:04;;;;;;;0.20;0.20;;;3.80;99.90;;;;;;5071291;28;20122;-78
2024/01/16 12:58:36;;;;;;;0.20;0.20;;;3.60;99.90;;;;;;5094599;28;20036;-78
2024/01/16 13:01:25;;;;;;;0.20;0.20;;;3.70;99.90;;;;;;5070791;28;20050;-77